createdAt,value
2022-08-22T00:00:17.913Z,4.30
2022-08-22T00:02:42.590Z,4.30
2022-08-22T00:02:58.482Z,4.00
2022-08-22T00:03:12.380Z,5.00
2022-08-22T00:03:15.268Z,4.70
2022-08-22T00:06:06.568Z,4.50
2022-08-22T00:09:06.820Z,5.10
2022-08-22T00:11:47.687Z,4.80
2022-08-22T00:14:32.573Z,4.30
2022-08-22T00:17:23.982Z,4.00
2022-08-22T00:20:13.424Z,4.40
2022-08-22T00:22:53.456Z,4.50
2022-08-22T00:25:40.411Z,3.90
2022-08-22T00:28:17.710Z,4.60
2022-08-22T00:30:54.793Z,4.30
2022-08-22T00:33:48.738Z,4.00
2022-08-22T00:36:47.875Z,5.20
2022-08-22T00:39:24.884Z,5.50
2022-08-22T00:42:30.300Z,5.60
2022-08-22T00:45:29.316Z,6.20
2022-08-22T00:48:34.515Z,5.20
2022-08-22T00:51:32.881Z,5.50
2022-08-22T00:54:17.581Z,5.10
2022-08-22T00:57:03.647Z,4.90
2022-08-22T00:59:53.095Z,6.80
2022-08-22T01:02:39.652Z,9.20
2022-08-22T01:08:22.248Z,9.50
2022-08-22T01:11:07.925Z,8.70
2022-08-22T01:14:08.139Z,8.90
2022-08-22T01:17:08.211Z,7.50
2022-08-22T01:20:06.534Z,6.90
2022-08-22T01:23:06.538Z,8.20
2022-08-22T01:26:06.355Z,8.00
2022-08-22T01:28:56.607Z,8.60
2022-08-22T01:32:00.749Z,7.90
2022-08-22T01:34:51.287Z,7.80
2022-08-22T01:37:43.414Z,7.80
2022-08-22T01:40:53.365Z,8.10
2022-08-22T01:44:00.611Z,8.80
2022-08-22T01:46:52.167Z,9.50
2022-08-22T01:49:44.695Z,8.90
2022-08-22T01:52:39.440Z,8.20
2022-08-22T01:55:14.496Z,7.40
2022-08-22T01:57:59.162Z,7.70
2022-08-22T02:00:50.381Z,8.80
2022-08-22T02:03:33.389Z,6.30
2022-08-22T02:06:14.480Z,5.80
2022-08-22T02:09:06.941Z,5.10
2022-08-22T02:11:54.912Z,4.90
2022-08-22T02:14:45.204Z,5.30
2022-08-22T02:17:29.900Z,5.60
2022-08-22T02:20:20.245Z,4.70
2022-08-22T02:22:58.539Z,4.90
2022-08-22T02:25:33.413Z,4.90
2022-08-22T02:28:10.907Z,4.90
2022-08-22T02:30:55.183Z,5.00
2022-08-22T02:33:34.054Z,4.70
2022-08-22T02:36:15.374Z,5.40
2022-08-22T02:39:13.862Z,5.40
2022-08-22T02:41:57.615Z,5.00
2022-08-22T02:44:35.813Z,5.30
2022-08-22T02:47:21.266Z,5.50
2022-08-22T02:50:16.268Z,5.70
2022-08-22T02:53:21.172Z,6.10
2022-08-22T02:56:17.096Z,6.90
2022-08-22T02:58:54.138Z,6.60
2022-08-22T03:01:40.790Z,8.00
2022-08-22T03:04:23.737Z,8.00
2022-08-22T03:07:07.913Z,8.10
2022-08-22T03:09:52.782Z,8.70
2022-08-22T03:12:29.872Z,8.30
2022-08-22T03:15:07.693Z,8.20
2022-08-22T03:17:52.616Z,9.50
2022-08-22T03:20:53.989Z,9.60
2022-08-22T03:23:43.752Z,8.60
2022-08-22T03:26:18.347Z,9.30
2022-08-22T03:28:58.941Z,7.70
2022-08-22T03:31:31.300Z,9.40
2022-08-22T03:34:24.693Z,7.60
2022-08-22T03:37:24.459Z,7.70
2022-08-22T03:40:06.225Z,6.30
2022-08-22T03:43:02.821Z,6.90
2022-08-22T03:46:05.093Z,6.90
2022-08-22T03:49:02.596Z,7.00
2022-08-22T03:52:03.038Z,7.70
2022-08-22T03:54:56.731Z,10.20
2022-08-22T03:57:55.791Z,10.10
2022-08-22T04:00:55.975Z,9.50
2022-08-22T04:03:56.083Z,10.10
2022-08-22T04:07:04.081Z,10.20
2022-08-22T04:09:56.633Z,8.50
2022-08-22T04:12:56.153Z,9.00
2022-08-22T04:15:44.239Z,9.50
2022-08-22T04:18:47.212Z,8.90
2022-08-22T04:21:49.189Z,7.90
2022-08-22T04:24:52.238Z,7.70
2022-08-22T04:27:43.569Z,8.60
2022-08-22T04:30:31.334Z,8.50
2022-08-22T04:33:09.091Z,8.20
2022-08-22T04:36:07.972Z,9.80
2022-08-22T04:38:51.709Z,9.00
2022-08-22T04:41:41.710Z,9.50
2022-08-22T04:44:17.906Z,8.90
2022-08-22T04:46:56.316Z,10.20
2022-08-22T04:49:34.766Z,11.10
2022-08-22T04:52:15.484Z,9.50
2022-08-22T04:55:10.971Z,9.80
2022-08-22T04:57:54.268Z,8.10
2022-08-22T05:00:24.691Z,8.40
2022-08-22T05:02:57.900Z,9.40
2022-08-22T05:05:35.787Z,8.00
2022-08-22T05:08:11.568Z,8.50
2022-08-22T05:10:43.968Z,8.50
2022-08-22T05:13:21.448Z,8.10
2022-08-22T05:15:56.392Z,8.30
2022-08-22T05:18:30.382Z,6.50
2022-08-22T05:21:02.592Z,7.20
2022-08-22T05:24:01.456Z,6.90
2022-08-22T05:26:38.204Z,6.50
2022-08-22T05:56:19.203Z,6.10
2022-08-22T05:58:59.971Z,6.90
2022-08-22T06:01:40.114Z,6.40
2022-08-22T06:04:25.763Z,5.90
2022-08-22T06:07:01.041Z,5.40
2022-08-22T06:10:11.119Z,5.70
2022-08-22T06:12:55.675Z,5.60
2022-08-22T06:15:44.001Z,6.20
2022-08-22T06:18:22.872Z,5.60
2022-08-22T06:21:06.854Z,5.30
2022-08-22T06:23:51.035Z,5.80
2022-08-22T06:26:21.486Z,6.00
2022-08-22T06:31:22.672Z,6.60
2022-08-22T06:34:07.689Z,6.50
2022-08-22T06:36:40.615Z,6.50
2022-08-22T06:39:22.821Z,6.20
2022-08-22T06:42:02.466Z,6.50
2022-08-22T06:45:33.463Z,7.10
2022-08-22T06:49:29.789Z,6.30
2022-08-22T06:56:16.156Z,5.70
2022-08-22T06:59:29.962Z,6.00
2022-08-22T07:02:43.132Z,5.90
2022-08-22T07:05:57.682Z,5.90
2022-08-22T07:13:21.951Z,5.80
2022-08-22T07:16:41.371Z,5.70
2022-08-22T07:24:05.294Z,5.30
2022-08-22T07:30:41.067Z,7.20
2022-08-22T07:37:38.148Z,5.30
2022-08-22T07:40:42.924Z,5.40
2022-08-22T07:47:34.949Z,4.50
2022-08-22T07:50:28.621Z,4.90
2022-08-22T07:53:20.580Z,4.80
2022-08-22T07:56:52.761Z,5.60
2022-08-22T07:59:58.597Z,5.60
2022-08-22T08:03:31.878Z,6.70
2022-08-22T08:06:48.851Z,5.90
2022-08-22T08:09:52.384Z,5.70
2022-08-22T08:13:02.203Z,6.40
2022-08-22T08:16:03.475Z,6.20
2022-08-22T08:19:11.404Z,5.60
2022-08-22T08:22:19.101Z,6.00
2022-08-22T08:25:33.236Z,6.30
2022-08-22T08:28:52.913Z,5.90
2022-08-22T08:32:10.877Z,5.40
2022-08-22T08:35:30.426Z,5.50
2022-08-22T08:38:24.357Z,5.10
2022-08-22T08:41:37.109Z,5.00
2022-08-22T08:44:56.092Z,4.90
2022-08-22T08:49:07.469Z,4.80
2022-08-22T08:52:10.099Z,4.90
2022-08-22T08:55:22.056Z,5.40
2022-08-22T08:58:17.787Z,5.50
2022-08-22T09:01:08.283Z,5.20
2022-08-22T09:04:05.213Z,5.10
2022-08-22T09:07:09.350Z,5.60
2022-08-22T09:10:06.718Z,5.60
2022-08-22T09:13:11.503Z,5.30
2022-08-22T09:16:16.105Z,4.50
2022-08-22T09:19:09.154Z,4.50
2022-08-22T09:22:14.186Z,5.20
2022-08-22T09:25:19.065Z,5.20
2022-08-22T09:28:22.732Z,4.70
2022-08-22T09:31:47.898Z,3.90
2022-08-22T09:34:29.494Z,4.50
2022-08-22T09:37:21.815Z,3.90
2022-08-22T09:40:01.439Z,4.30
2022-08-22T09:42:56.688Z,4.50
2022-08-22T09:46:31.537Z,4.50
2022-08-22T09:49:16.478Z,4.50
2022-08-22T09:52:35.701Z,3.90
2022-08-22T09:55:40.157Z,4.20
2022-08-22T09:58:23.680Z,4.20
2022-08-22T10:01:12.217Z,3.70
2022-08-22T10:04:22.546Z,3.60
2022-08-22T10:07:34.026Z,4.50
2022-08-22T10:10:36.310Z,4.20
2022-08-22T10:13:37.536Z,4.20
2022-08-22T10:16:24.642Z,3.60
2022-08-22T10:19:35.714Z,3.90
2022-08-22T10:22:41.697Z,4.20
2022-08-22T10:25:51.776Z,3.90
2022-08-22T10:28:49.745Z,4.60
2022-08-22T10:35:20.983Z,4.10
2022-08-22T10:41:47.568Z,4.20
2022-08-22T10:44:24.247Z,3.80
2022-08-22T10:47:05.526Z,3.90
2022-08-22T10:49:53.210Z,3.70
2022-08-22T10:53:11.981Z,3.80
2022-08-22T11:21:28.881Z,3.10
2022-08-22T12:00:23.400Z,3.10
2022-08-22T12:04:30.712Z,2.60
2022-08-22T12:04:48.403Z,2.70
2022-08-22T12:11:19.258Z,2.50
2022-08-22T12:14:05.160Z,3.00
2022-08-22T12:17:33.532Z,2.30
2022-08-22T12:24:06.115Z,2.50
2022-08-22T12:24:54.496Z,2.10
2022-08-22T12:28:05.690Z,2.30
2022-08-22T12:31:10.921Z,2.40
2022-08-22T12:37:02.060Z,2.20
2022-08-22T12:40:03.534Z,2.00
2022-08-22T12:43:15.281Z,1.80
2022-08-22T12:46:17.217Z,1.70
2022-08-22T12:49:12.324Z,1.80
2022-08-22T12:52:30.124Z,2.20
2022-08-22T12:55:26.743Z,2.30
2022-08-22T12:58:35.460Z,2.50
2022-08-22T13:01:18.821Z,3.60
2022-08-22T13:04:32.803Z,2.20
2022-08-22T13:11:09.991Z,2.40
2022-08-22T13:17:31.358Z,2.20
2022-08-22T13:20:10.350Z,1.80
2022-08-22T13:26:37.694Z,2.10
2022-08-22T13:27:07.420Z,1.80
2022-08-22T13:30:45.622Z,1.90
2022-08-22T13:34:19.561Z,1.80
2022-08-22T13:38:01.251Z,2.00
2022-08-22T13:41:19.784Z,1.90
2022-08-22T13:45:06.758Z,2.00
2022-08-22T13:48:56.713Z,1.70
2022-08-22T13:55:51.045Z,1.70
2022-08-22T13:59:50.331Z,1.90
2022-08-22T14:03:29.680Z,1.80
2022-08-22T14:07:03.086Z,2.10
2022-08-22T14:10:18.155Z,2.20
2022-08-22T14:13:28.888Z,2.30
2022-08-22T14:21:11.163Z,1.70
2022-08-22T14:25:08.812Z,2.00
2022-08-22T14:29:22.930Z,1.80
2022-08-22T14:32:41.833Z,1.80
2022-08-22T14:35:52.877Z,1.90
2022-08-22T14:40:53.707Z,1.80
2022-08-22T14:43:40.391Z,1.70
2022-08-22T14:47:08.326Z,1.60
2022-08-22T14:51:31.348Z,1.50
2022-08-22T14:54:47.954Z,1.70
2022-08-22T14:57:20.490Z,1.20
2022-08-22T15:00:37.771Z,1.50
2022-08-22T15:03:35.907Z,1.50
2022-08-22T15:06:51.029Z,1.80
2022-08-22T15:10:07.621Z,1.60
2022-08-22T15:13:10.447Z,1.60
2022-08-22T15:16:30.172Z,1.40
2022-08-22T15:19:52.138Z,1.50
2022-08-22T15:23:09.809Z,1.90
2022-08-22T15:26:13.107Z,1.90
2022-08-22T15:29:22.194Z,1.70
2022-08-22T15:32:30.967Z,1.90
2022-08-22T15:35:39.048Z,1.60
2022-08-22T15:38:39.170Z,1.80
2022-08-22T15:42:20.754Z,1.90
2022-08-22T15:48:32.877Z,2.10
2022-08-22T15:51:10.248Z,2.30
2022-08-22T15:54:03.676Z,2.50
2022-08-22T15:57:15.325Z,2.40
2022-08-22T15:59:57.378Z,2.40
2022-08-22T16:02:35.677Z,2.40
2022-08-22T16:05:27.425Z,3.00
2022-08-22T16:08:06.378Z,2.70
2022-08-22T16:10:43.243Z,2.90
2022-08-22T16:13:34.746Z,2.50
2022-08-22T16:16:31.443Z,2.20
2022-08-22T16:19:17.301Z,2.30
2022-08-22T16:22:08.012Z,2.70
2022-08-22T16:24:57.388Z,2.00
2022-08-22T16:27:27.514Z,2.20
2022-08-22T16:30:05.877Z,2.00
2022-08-22T16:32:35.730Z,2.20
2022-08-22T16:35:04.263Z,1.70
2022-08-22T16:37:48.017Z,1.90
2022-08-22T16:40:23.079Z,2.30
2022-08-22T16:43:14.034Z,2.30
2022-08-22T16:45:45.854Z,1.80
2022-08-22T16:48:30.154Z,1.90
2022-08-22T16:51:14.830Z,2.00
2022-08-22T16:54:12.985Z,2.10
2022-08-22T16:57:09.159Z,2.10
2022-08-22T16:59:56.548Z,2.20
2022-08-22T17:02:52.542Z,1.90
2022-08-22T17:05:38.870Z,2.10
2022-08-22T17:08:35.866Z,2.40
2022-08-22T17:11:37.088Z,2.50
2022-08-22T17:14:37.193Z,2.60
2022-08-22T17:17:42.127Z,3.80
2022-08-22T17:20:47.693Z,5.90
2022-08-22T17:23:37.990Z,4.00
2022-08-22T17:26:27.168Z,3.30
2022-08-22T17:29:39.147Z,2.90
2022-08-22T17:32:34.803Z,2.90
2022-08-22T17:35:18.068Z,2.80
2022-08-22T17:38:22.274Z,2.80
2022-08-22T17:41:22.168Z,3.30
2022-08-22T17:44:15.632Z,2.80
2022-08-22T17:47:09.278Z,2.80
2022-08-22T17:50:09.171Z,2.90
2022-08-22T17:52:45.734Z,2.80
2022-08-22T17:55:18.072Z,2.40
2022-08-22T17:57:56.018Z,2.70
2022-08-22T18:00:47.529Z,3.00
2022-08-22T18:03:26.747Z,2.90
2022-08-22T18:06:09.244Z,2.30
2022-08-22T18:11:45.717Z,2.40
2022-08-22T18:14:36.675Z,2.60
2022-08-22T18:17:18.557Z,2.70
2022-08-22T18:20:02.238Z,2.80
2022-08-22T18:22:41.104Z,2.50
2022-08-22T18:25:30.602Z,2.30
2022-08-22T18:28:06.775Z,3.00
2022-08-22T18:30:49.921Z,3.00
2022-08-22T18:33:37.510Z,2.70
2022-08-22T18:36:18.251Z,3.20
2022-08-22T18:39:03.533Z,2.90
2022-08-22T18:41:43.151Z,3.20
2022-08-22T18:44:17.889Z,3.00
2022-08-22T18:46:50.967Z,3.00
2022-08-22T18:49:45.099Z,2.70
2022-08-22T18:52:20.856Z,3.00
2022-08-22T18:55:15.531Z,2.70
2022-08-22T18:58:13.537Z,2.40
2022-08-22T19:01:00.890Z,2.60
2022-08-22T19:03:54.077Z,2.50
2022-08-22T19:07:20.891Z,2.60
2022-08-22T19:10:34.505Z,2.20
2022-08-22T19:17:16.008Z,2.80
2022-08-22T19:20:40.604Z,2.50
2022-08-22T19:23:49.019Z,2.40
2022-08-22T19:27:02.048Z,2.80
2022-08-22T19:30:08.034Z,2.30
2022-08-22T19:33:34.117Z,3.00
2022-08-22T19:36:43.462Z,2.40
2022-08-22T19:40:06.835Z,2.80
2022-08-22T19:46:32.024Z,2.80
2022-08-22T19:49:38.011Z,2.80
2022-08-22T19:53:12.008Z,3.50
2022-08-22T19:56:52.678Z,2.50
2022-08-22T20:03:05.985Z,2.40
2022-08-22T20:06:33.499Z,2.30
2022-08-22T20:09:33.961Z,2.60
2022-08-22T20:12:36.098Z,2.30
2022-08-22T20:15:39.428Z,2.50
2022-08-22T20:18:12.406Z,2.30
2022-08-22T20:21:21.448Z,2.20
2022-08-22T20:24:23.031Z,2.30
2022-08-22T20:27:34.032Z,2.50
2022-08-22T20:30:48.951Z,2.10
2022-08-22T20:33:58.060Z,2.60
2022-08-22T20:40:54.801Z,2.30
2022-08-22T20:47:43.600Z,2.70
2022-08-22T20:50:57.945Z,3.00
2022-08-22T20:57:31.689Z,2.60
2022-08-22T21:00:47.340Z,2.60
2022-08-22T21:04:00.011Z,2.80
2022-08-22T21:10:43.163Z,2.60
2022-08-22T21:13:37.980Z,2.50
2022-08-22T21:16:50.017Z,2.60
2022-08-22T21:20:20.044Z,2.60
2022-08-22T21:23:33.007Z,2.30
2022-08-22T21:26:42.987Z,2.20
2022-08-22T21:29:56.051Z,2.30
2022-08-22T21:33:08.005Z,2.40
2022-08-22T21:36:25.095Z,2.50
2022-08-22T21:39:37.470Z,2.70
2022-08-22T21:42:49.031Z,2.30
2022-08-22T21:45:58.034Z,2.80
2022-08-22T21:49:20.847Z,2.40
2022-08-22T21:52:36.050Z,2.60
2022-08-22T21:55:44.076Z,2.80
2022-08-22T21:58:54.058Z,2.60
2022-08-22T22:05:29.073Z,2.40
2022-08-22T22:08:42.032Z,2.90
2022-08-22T22:11:53.081Z,3.10
2022-08-22T22:15:12.883Z,2.30
2022-08-22T22:18:32.384Z,2.40
2022-08-22T22:21:46.985Z,2.60
2022-08-22T22:25:03.494Z,1.90
2022-08-22T22:28:24.286Z,2.10
2022-08-22T22:31:30.014Z,2.40
2022-08-22T22:34:41.964Z,2.30
2022-08-22T22:37:53.004Z,2.10
2022-08-22T22:40:53.017Z,2.30
2022-08-22T22:44:29.707Z,2.40
2022-08-22T22:47:43.116Z,2.50
2022-08-22T22:51:05.697Z,2.60
2022-08-22T22:54:17.967Z,2.30
2022-08-22T22:57:29.989Z,2.80
2022-08-22T23:00:42.187Z,3.10
2022-08-22T23:03:53.953Z,2.80
2022-08-22T23:07:25.281Z,2.90
2022-08-22T23:10:36.046Z,3.00
2022-08-22T23:13:45.076Z,2.90
2022-08-22T23:16:54.020Z,3.20
2022-08-22T23:20:23.970Z,2.50
2022-08-22T23:23:37.676Z,2.60
2022-08-22T23:26:43.964Z,2.90
2022-08-22T23:29:56.082Z,2.60
2022-08-22T23:36:34.214Z,2.30
2022-08-22T23:39:52.082Z,2.50
2022-08-22T23:43:02.026Z,2.50
2022-08-22T23:46:24.014Z,2.50
2022-08-22T23:49:37.044Z,2.10
2022-08-22T23:53:11.901Z,2.50
2022-08-22T23:56:19.274Z,2.50
